TimeCET,TemperatureF,Dew PointF,Humidity,Sea Level PressureIn,VisibilityMPH,Wind Direction,Wind SpeedMPH,Gust SpeedMPH,PrecipitationIn,Events,Conditions,WindDirDegrees,DateUTC
12:25 AM,46.4,39.2,76,30.51,6.2,NE,4.6,-,N/A,,Overcast,40,2013-12-01 23:25:00
12:55 AM,44.6,39.2,81,30.51,6.2,North,3.5,-,N/A,,Overcast,10,2013-12-01 23:55:00
1:00 AM,45,40,76,30.53,11,North,4.5,,,,Partly Cloudy,10,2013-12-02 00:00:00
1:25 AM,44.6,39.2,81,30.51,6.2,NNE,4.6,-,N/A,,Mostly Cloudy,20,2013-12-02 00:25:00
1:55 AM,42.8,39.2,87,30.54,6.2,North,4.6,-,N/A,,Overcast,10,2013-12-02 00:55:00
2:25 AM,42.8,39.2,87,30.54,6.2,NNE,3.5,-,N/A,,Unknown,20,2013-12-02 01:25:00
2:55 AM,41.0,39.2,93,30.54,6.2,North,3.5,-,N/A,,Unknown,10,2013-12-02 01:55:00
3:25 AM,41.0,39.2,93,30.54,6.2,North,3.5,-,N/A,,Mostly Cloudy,10,2013-12-02 02:25:00
3:55 AM,37.4,35.6,93,30.54,6.2,North,2.3,-,N/A,,Mostly Cloudy,10,2013-12-02 02:55:00
4:00 AM,36,36,98,30.55,6,NNE,2.2,,,,Overcast,20,2013-12-02 03:00:00
4:25 AM,35.6,35.6,100,30.54,5.6,Variable,2.3,-,N/A,,Mostly Cloudy,0,2013-12-02 03:25:00
4:55 AM,35.6,35.6,100,30.54,5.6,Variable,2.3,-,N/A,,Overcast,0,2013-12-02 03:55:00
5:25 AM,35.6,35.6,100,30.54,6.2,Variable,1.2,-,N/A,,Overcast,0,2013-12-02 04:25:00
5:55 AM,37.4,37.4,100,30.54,6.2,Variable,2.3,-,N/A,,Mostly Cloudy,0,2013-12-02 04:55:00
6:25 AM,39.2,37.4,93,30.54,6.2,Variable,2.3,-,N/A,,Overcast,0,2013-12-02 05:25:00
6:55 AM,39.2,37.4,93,30.54,6.2,North,2.3,-,N/A,,Overcast,350,2013-12-02 05:55:00
7:00 AM,38,37,97,30.55,7,North,4.5,,,,Partly Cloudy,10,2013-12-02 06:00:00
7:25 AM,39.2,37.4,93,30.54,6.2,Variable,1.2,-,N/A,,Mostly Cloudy,0,2013-12-02 06:25:00
7:55 AM,39.2,37.4,93,30.54,6.2,Variable,2.3,-,N/A,,Overcast,0,2013-12-02 06:55:00
8:25 AM,37.4,37.4,100,30.54,5.6,Variable,1.2,-,N/A,,Overcast,0,2013-12-02 07:25:00
8:55 AM,37.4,37.4,100,30.57,6.2,Variable,1.2,-,N/A,,Overcast,0,2013-12-02 07:55:00
9:25 AM,39.2,37.4,93,30.57,6.2,Variable,1.2,-,N/A,,Overcast,0,2013-12-02 08:25:00
9:55 AM,41.0,39.2,93,30.57,6.2,Variable,2.3,-,N/A,,Overcast,0,2013-12-02 08:55:00
10:00 AM,41,40,92,30.59,7,NNE,2.2,,,,Overcast,30,2013-12-02 09:00:00
10:25 AM,42.8,41.0,93,30.57,6.2,ENE,2.3,-,N/A,,Overcast,60,2013-12-02 09:25:00
10:55 AM,44.6,41.0,87,30.57,6.2,ENE,5.8,-,N/A,,Mostly Cloudy,60,2013-12-02 09:55:00
11:25 AM,46.4,41.0,81,30.57,6.2,NE,4.6,-,N/A,,Mostly Cloudy,50,2013-12-02 10:25:00
11:55 AM,46.4,39.2,76,30.57,6.2,ENE,4.6,-,N/A,,Mostly Cloudy,70,2013-12-02 10:55:00
12:25 PM,46.4,39.2,76,30.54,6.2,ENE,5.8,-,N/A,,Unknown,70,2013-12-02 11:25:00
12:55 PM,46.4,39.2,76,30.54,6.2,ENE,6.9,-,N/A,,Unknown,70,2013-12-02 11:55:00
1:00 PM,47,38,63,30.55,7,ENE,6.7,,,,Partly Cloudy,70,2013-12-02 12:00:00
1:25 PM,46.4,37.4,71,30.54,6.2,East,10.4,-,N/A,,Partly Cloudy,80,2013-12-02 12:25:00
1:55 PM,46.4,37.4,71,30.54,6.2,East,9.2,-,N/A,,Partly Cloudy,80,2013-12-02 12:55:00
2:25 PM,46.4,37.4,71,30.51,6.2,ENE,10.4,-,N/A,,Partly Cloudy,70,2013-12-02 13:25:00
2:55 PM,46.4,37.4,71,30.51,6.2,East,8.1,-,N/A,,Mostly Cloudy,80,2013-12-02 13:55:00
3:25 PM,44.6,37.4,76,30.51,6.2,ENE,6.9,-,N/A,,Unknown,60,2013-12-02 14:25:00
3:55 PM,42.8,37.4,81,30.51,6.2,ENE,6.9,-,N/A,,Unknown,70,2013-12-02 14:55:00
4:00 PM,43,37,72,30.52,8,ENE,6.7,,,,,70,2013-12-02 15:00:00
4:25 PM,39.2,35.6,87,30.51,6.2,ENE,6.9,-,N/A,,Unknown,60,2013-12-02 15:25:00
4:55 PM,37.4,33.8,87,30.51,6.2,ENE,6.9,-,N/A,,Unknown,70,2013-12-02 15:55:00
5:25 PM,37.4,35.6,93,30.51,6.2,ENE,5.8,-,N/A,,Unknown,70,2013-12-02 16:25:00
5:55 PM,39.2,35.6,87,30.48,6.2,ENE,5.8,-,N/A,,Unknown,70,2013-12-02 16:55:00
6:25 PM,39.2,35.6,87,30.48,6.2,ENE,3.5,-,N/A,,Unknown,70,2013-12-02 17:25:00
6:55 PM,39.2,35.6,87,30.51,6.2,North,3.5,-,N/A,,Unknown,10,2013-12-02 17:55:00
7:00 PM,38,36,90,30.51,6,NNE,4.5,,,,Mist,20,2013-12-02 18:00:00
7:25 PM,35.6,35.6,100,30.51,5.6,Variable,2.3,-,N/A,,Unknown,0,2013-12-02 18:25:00
7:55 PM,37.4,35.6,93,30.51,5.6,NE,3.5,-,N/A,,Unknown,40,2013-12-02 18:55:00
8:25 PM,35.6,33.8,93,30.48,5.6,NE,3.5,-,N/A,,Unknown,50,2013-12-02 19:25:00
8:55 PM,35.6,35.6,100,30.48,5.6,ENE,3.5,-,N/A,,Unknown,70,2013-12-02 19:55:00
9:25 PM,37.4,35.6,93,30.48,5.6,East,2.3,-,N/A,,Unknown,80,2013-12-02 20:25:00
9:55 PM,35.6,35.6,100,30.48,5.6,NE,1.2,-,N/A,,Unknown,40,2013-12-02 20:55:00
10:00 PM,34,33,97,30.48,5,ENE,2.2,,,,Mist,70,2013-12-02 21:00:00
10:25 PM,33.8,32.0,93,30.48,5.0,Variable,1.2,-,N/A,,Unknown,0,2013-12-02 21:25:00
10:55 PM,32.0,32.0,100,30.45,3.7,NE,1.2,-,N/A,,Unknown,40,2013-12-02 21:55:00
11:25 PM,32.0,32.0,100,30.45,4.3,NE,2.3,-,N/A,,Unknown,50,2013-12-02 22:25:00
11:55 PM,32.0,32.0,100,30.45,1.6,Variable,1.2,-,N/A,,Mist,0,2013-12-02 22:55:00